EZY4466 EGHH-EHAM
Flight info
| Callsign | EZY4466 |
|---|---|
| Flight time | 0h 48m |
| Altitude | 37000 |
| Route | DCT GWC DCT OCK UM185 KOBBI M197 REDFA REDFA1A |
| Aircraft | A319/M-SDE3FGHIRWY/LB1 |
Departure
| Time | 2026-04-27 21:57 |
|---|---|
| Airport | Bournemouth Airport (EGHH) |
Arrival
| Time | 2026-04-27 22:46 |
|---|---|
| Airport | Amsterdam Airport Schiphol (EHAM) |
| Time | Latitude | Longitude | Altitude | Speed | Heading |
|---|---|---|---|---|---|
| 2026-04-27 21:31 | 50.77806 | -1.83373 | 43 ft | 0 kts | 86° |
| 2026-04-27 21:50 | 50.77806 | -1.83376 | 40 ft | 2 kts | 86° |
| 2026-04-27 21:50 | 50.77806 | -1.83417 | 42 ft | 4 kts | 99° |
| 2026-04-27 21:50 | 50.77814 | -1.83456 | 39 ft | 4 kts | 131° |
| 2026-04-27 21:50 | 50.77829 | -1.83472 | 43 ft | 0 kts | 176° |
| 2026-04-27 21:52 | 50.77815 | -1.83470 | 43 ft | 3 kts | 175° |
| 2026-04-27 21:53 | 50.77779 | -1.83465 | 43 ft | 7 kts | 175° |
| 2026-04-27 21:53 | 50.77716 | -1.83468 | 43 ft | 11 kts | 190° |
| 2026-04-27 21:53 | 50.77627 | -1.83484 | 43 ft | 15 kts | 194° |
| 2026-04-27 21:53 | 50.77574 | -1.83611 | 43 ft | 17 kts | 267° |
| 2026-04-27 21:54 | 50.77579 | -1.83811 | 44 ft | 20 kts | 277° |
| 2026-04-27 21:54 | 50.77611 | -1.84045 | 42 ft | 24 kts | 283° |
| 2026-04-27 21:54 | 50.77660 | -1.84311 | 44 ft | 27 kts | 288° |
| 2026-04-27 21:54 | 50.77712 | -1.84602 | 43 ft | 28 kts | 280° |
| 2026-04-27 21:55 | 50.77761 | -1.84868 | 43 ft | 21 kts | 298° |
| 2026-04-27 21:55 | 50.77814 | -1.85014 | 46 ft | 0 kts | 299° |
| 2026-04-27 21:55 | 50.77814 | -1.85015 | 46 ft | 0 kts | 299° |
| 2026-04-27 21:55 | 50.77816 | -1.85018 | 44 ft | 1 kts | 299° |
| 2026-04-27 21:56 | 50.77821 | -1.85032 | 45 ft | 3 kts | 299° |
| 2026-04-27 21:56 | 50.77872 | -1.85054 | 46 ft | 9 kts | 58° |
| 2026-04-27 21:56 | 50.77944 | -1.84634 | 46 ft | 80 kts | 75° |
| 2026-04-27 21:57 | 50.78149 | -1.83402 | 49 ft | 148 kts | 75° |
| 2026-04-27 21:57 | 50.78441 | -1.81753 | 563 ft | 158 kts | 73° |
| 2026-04-27 21:57 | 50.78777 | -1.80064 | 1248 ft | 163 kts | 72° |
| 2026-04-27 21:57 | 50.79153 | -1.78365 | 1987 ft | 165 kts | 71° |
| 2026-04-27 21:58 | 50.79567 | -1.76666 | 2728 ft | 166 kts | 69° |
| 2026-04-27 21:58 | 50.79877 | -1.74763 | 2980 ft | 199 kts | 82° |
| 2026-04-27 21:58 | 50.80018 | -1.72378 | 3280 ft | 233 kts | 86° |
| 2026-04-27 21:58 | 50.80125 | -1.69720 | 3985 ft | 249 kts | 86° |
| 2026-04-27 21:59 | 50.80245 | -1.66943 | 4928 ft | 258 kts | 85° |
| 2026-04-27 21:59 | 50.80383 | -1.64114 | 5820 ft | 265 kts | 85° |
| 2026-04-27 21:59 | 50.80540 | -1.61170 | 6764 ft | 272 kts | 84° |
| 2026-04-27 21:59 | 50.80711 | -1.58163 | 7668 ft | 277 kts | 84° |
| 2026-04-27 22:00 | 50.80936 | -1.55117 | 8588 ft | 282 kts | 76° |
| 2026-04-27 22:00 | 50.81794 | -1.52281 | 9489 ft | 286 kts | 53° |
| 2026-04-27 22:00 | 50.82996 | -1.49762 | 10422 ft | 290 kts | 51° |
| 2026-04-27 22:00 | 50.84292 | -1.47146 | 10814 ft | 313 kts | 51° |
| 2026-04-27 22:01 | 50.85662 | -1.44406 | 11358 ft | 328 kts | 51° |
| 2026-04-27 22:01 | 50.87100 | -1.41543 | 11964 ft | 336 kts | 51° |
| 2026-04-27 22:01 | 50.88576 | -1.38618 | 12741 ft | 343 kts | 51° |
| 2026-04-27 22:01 | 50.90076 | -1.35635 | 13545 ft | 349 kts | 51° |
| 2026-04-27 22:02 | 50.91603 | -1.32600 | 14273 ft | 355 kts | 51° |
| 2026-04-27 22:02 | 50.93154 | -1.29515 | 14968 ft | 360 kts | 51° |
| 2026-04-27 22:02 | 50.94723 | -1.26391 | 15673 ft | 364 kts | 51° |
| 2026-04-27 22:02 | 50.96308 | -1.23233 | 16391 ft | 368 kts | 51° |
| 2026-04-27 22:03 | 50.97912 | -1.20036 | 17113 ft | 372 kts | 51° |
| 2026-04-27 22:03 | 50.99529 | -1.16803 | 17830 ft | 376 kts | 51° |
| 2026-04-27 22:03 | 51.01163 | -1.13533 | 18540 ft | 380 kts | 51° |
| 2026-04-27 22:03 | 51.02816 | -1.10221 | 19146 ft | 384 kts | 51° |
| 2026-04-27 22:04 | 51.04483 | -1.06873 | 19760 ft | 388 kts | 51° |
| 2026-04-27 22:04 | 51.06164 | -1.03484 | 20383 ft | 392 kts | 51° |
| 2026-04-27 22:04 | 51.07859 | -1.00060 | 20988 ft | 396 kts | 51° |
| 2026-04-27 22:04 | 51.09567 | -0.96601 | 21586 ft | 400 kts | 51° |
| 2026-04-27 22:05 | 51.11289 | -0.93100 | 22199 ft | 403 kts | 51° |
| 2026-04-27 22:05 | 51.13011 | -0.89556 | 22794 ft | 407 kts | 51° |
| 2026-04-27 22:05 | 51.14747 | -0.85976 | 23385 ft | 411 kts | 51° |
| 2026-04-27 22:05 | 51.16502 | -0.82350 | 23953 ft | 414 kts | 51° |
| 2026-04-27 22:06 | 51.18266 | -0.78703 | 24432 ft | 418 kts | 51° |
| 2026-04-27 22:06 | 51.20050 | -0.75017 | 24899 ft | 421 kts | 51° |
| 2026-04-27 22:06 | 51.21932 | -0.71517 | 25344 ft | 423 kts | 43° |
| 2026-04-27 22:06 | 51.24000 | -0.68133 | 25797 ft | 428 kts | 48° |
| 2026-04-27 22:07 | 51.25793 | -0.64321 | 26244 ft | 432 kts | 55° |
| 2026-04-27 22:07 | 51.27383 | -0.60223 | 26697 ft | 435 kts | 59° |
| 2026-04-27 22:07 | 51.28887 | -0.56000 | 27142 ft | 439 kts | 60° |
| 2026-04-27 22:07 | 51.30404 | -0.51744 | 27574 ft | 442 kts | 59° |
| 2026-04-27 22:08 | 51.31983 | -0.47512 | 28008 ft | 445 kts | 58° |
| 2026-04-27 22:08 | 51.33631 | -0.43316 | 28453 ft | 448 kts | 57° |
| 2026-04-27 22:08 | 51.35340 | -0.39137 | 28897 ft | 450 kts | 56° |
| 2026-04-27 22:08 | 51.37088 | -0.34949 | 29316 ft | 454 kts | 56° |
| 2026-04-27 22:09 | 51.38854 | -0.30735 | 29739 ft | 457 kts | 56° |
| 2026-04-27 22:09 | 51.40616 | -0.26495 | 30143 ft | 460 kts | 56° |
| 2026-04-27 22:09 | 51.42309 | -0.22366 | 30498 ft | 463 kts | 56° |
| 2026-04-27 22:09 | 51.44075 | -0.18020 | 30822 ft | 466 kts | 57° |
| 2026-04-27 22:10 | 51.45842 | -0.13650 | 31149 ft | 469 kts | 57° |
| 2026-04-27 22:10 | 51.47018 | -0.10730 | 31373 ft | 471 kts | 57° |
| 2026-04-27 22:10 | 51.49400 | -0.04806 | 31792 ft | 475 kts | 57° |
| 2026-04-27 22:10 | 51.50887 | -0.01105 | 32096 ft | 476 kts | 57° |
| 2026-04-27 22:11 | 51.52684 | 0.03369 | 32494 ft | 475 kts | 56° |
| 2026-04-27 22:11 | 51.54457 | 0.07778 | 32931 ft | 475 kts | 56° |
| 2026-04-27 22:11 | 51.56248 | 0.12236 | 33373 ft | 475 kts | 56° |
| 2026-04-27 22:11 | 51.58059 | 0.16755 | 33827 ft | 475 kts | 56° |
| 2026-04-27 22:12 | 51.59731 | 0.20934 | 34245 ft | 475 kts | 56° |
| 2026-04-27 22:12 | 51.61160 | 0.24510 | 34558 ft | 475 kts | 56° |
| 2026-04-27 22:12 | 51.62919 | 0.28917 | 34955 ft | 474 kts | 56° |
| 2026-04-27 22:12 | 51.64694 | 0.33378 | 35227 ft | 473 kts | 56° |
| 2026-04-27 22:13 | 51.66467 | 0.37842 | 35291 ft | 472 kts | 56° |
| 2026-04-27 22:13 | 51.69996 | 0.46755 | 35290 ft | 471 kts | 56° |
| 2026-04-27 22:14 | 51.73508 | 0.55658 | 35292 ft | 470 kts | 56° |
| 2026-04-27 22:14 | 51.77017 | 0.64570 | 35291 ft | 470 kts | 56° |
| 2026-04-27 22:15 | 51.80519 | 0.73498 | 35304 ft | 470 kts | 56° |
| 2026-04-27 22:15 | 51.83728 | 0.82686 | 35310 ft | 471 kts | 67° |
| 2026-04-27 22:16 | 51.85679 | 0.92724 | 35309 ft | 472 kts | 73° |
| 2026-04-27 22:16 | 51.87528 | 1.02918 | 35197 ft | 467 kts | 73° |
| 2026-04-27 22:16 | 51.88440 | 1.07931 | 34956 ft | 461 kts | 73° |
| 2026-04-27 22:17 | 51.89336 | 1.12884 | 34734 ft | 458 kts | 73° |
| 2026-04-27 22:17 | 51.90227 | 1.17824 | 34496 ft | 455 kts | 73° |
| 2026-04-27 22:17 | 51.91109 | 1.22737 | 34246 ft | 454 kts | 73° |
| 2026-04-27 22:17 | 51.91985 | 1.27641 | 33977 ft | 452 kts | 73° |
| 2026-04-27 22:18 | 51.92855 | 1.32527 | 33704 ft | 450 kts | 73° |
| 2026-04-27 22:18 | 51.93721 | 1.37385 | 33435 ft | 447 kts | 73° |
| 2026-04-27 22:18 | 51.94579 | 1.42218 | 33167 ft | 445 kts | 73° |
| 2026-04-27 22:18 | 51.95430 | 1.47026 | 32904 ft | 443 kts | 73° |
| 2026-04-27 22:19 | 51.96277 | 1.51823 | 32641 ft | 441 kts | 73° |
| 2026-04-27 22:19 | 51.97116 | 1.56594 | 32391 ft | 439 kts | 73° |
| 2026-04-27 22:19 | 51.97948 | 1.61338 | 32050 ft | 435 kts | 73° |
| 2026-04-27 22:19 | 51.98770 | 1.66036 | 31538 ft | 433 kts | 73° |
| 2026-04-27 22:20 | 51.99311 | 1.69140 | 31218 ft | 431 kts | 74° |
| 2026-04-27 22:20 | 52.00088 | 1.73827 | 30756 ft | 428 kts | 75° |
| 2026-04-27 22:20 | 52.00821 | 1.78504 | 30277 ft | 426 kts | 76° |
| 2026-04-27 22:20 | 52.01525 | 1.83152 | 29787 ft | 422 kts | 76° |
| 2026-04-27 22:21 | 52.02218 | 1.87767 | 29342 ft | 418 kts | 76° |
| 2026-04-27 22:21 | 52.02906 | 1.92335 | 28882 ft | 415 kts | 76° |
| 2026-04-27 22:21 | 52.03593 | 1.96863 | 28448 ft | 412 kts | 76° |
| 2026-04-27 22:21 | 52.04279 | 2.01367 | 27992 ft | 409 kts | 76° |
| 2026-04-27 22:22 | 52.04965 | 2.05836 | 27563 ft | 407 kts | 75° |
| 2026-04-27 22:22 | 52.05647 | 2.10274 | 27118 ft | 404 kts | 75° |
| 2026-04-27 22:22 | 52.06326 | 2.14694 | 26683 ft | 402 kts | 75° |
| 2026-04-27 22:22 | 52.06999 | 2.19084 | 26246 ft | 399 kts | 75° |
| 2026-04-27 22:23 | 52.07665 | 2.23438 | 25814 ft | 396 kts | 76° |
| 2026-04-27 22:23 | 52.08322 | 2.27773 | 25392 ft | 393 kts | 76° |
| 2026-04-27 22:23 | 52.08971 | 2.32079 | 24968 ft | 391 kts | 76° |
| 2026-04-27 22:23 | 52.09611 | 2.36355 | 24549 ft | 388 kts | 76° |
| 2026-04-27 22:24 | 52.10245 | 2.40593 | 24134 ft | 385 kts | 76° |
| 2026-04-27 22:24 | 52.10874 | 2.44808 | 23685 ft | 382 kts | 76° |
| 2026-04-27 22:24 | 52.11658 | 2.48899 | 23249 ft | 376 kts | 66° |
| 2026-04-27 22:24 | 52.12858 | 2.52630 | 22897 ft | 369 kts | 58° |
| 2026-04-27 22:25 | 52.14145 | 2.56155 | 22635 ft | 365 kts | 58° |
| 2026-04-27 22:25 | 52.15435 | 2.59704 | 22368 ft | 363 kts | 58° |
| 2026-04-27 22:25 | 52.16731 | 2.63285 | 22101 ft | 361 kts | 58° |
| 2026-04-27 22:25 | 52.17986 | 2.66761 | 21840 ft | 360 kts | 58° |
| 2026-04-27 22:26 | 52.19251 | 2.70265 | 21574 ft | 358 kts | 58° |
| 2026-04-27 22:26 | 52.20510 | 2.73759 | 21332 ft | 357 kts | 59° |
| 2026-04-27 22:26 | 52.21763 | 2.77243 | 21071 ft | 355 kts | 59° |
| 2026-04-27 22:26 | 52.23008 | 2.80711 | 20814 ft | 354 kts | 59° |
| 2026-04-27 22:27 | 52.24250 | 2.84171 | 20568 ft | 352 kts | 59° |
| 2026-04-27 22:27 | 52.25484 | 2.87611 | 20334 ft | 351 kts | 59° |
| 2026-04-27 22:27 | 52.26714 | 2.91046 | 20086 ft | 349 kts | 59° |
| 2026-04-27 22:27 | 52.27933 | 2.94457 | 19839 ft | 347 kts | 59° |
| 2026-04-27 22:28 | 52.29150 | 2.97863 | 19593 ft | 346 kts | 59° |
| 2026-04-27 22:28 | 52.30361 | 3.01255 | 19347 ft | 345 kts | 60° |
| 2026-04-27 22:28 | 52.31565 | 3.04634 | 19102 ft | 343 kts | 60° |
| 2026-04-27 22:28 | 52.32766 | 3.08009 | 18866 ft | 343 kts | 60° |
| 2026-04-27 22:29 | 52.33965 | 3.11377 | 18634 ft | 341 kts | 60° |
| 2026-04-27 22:29 | 52.35155 | 3.14726 | 18361 ft | 340 kts | 60° |
| 2026-04-27 22:29 | 52.36338 | 3.18067 | 18093 ft | 339 kts | 60° |
| 2026-04-27 22:29 | 52.37515 | 3.21397 | 17820 ft | 337 kts | 59° |
| 2026-04-27 22:30 | 52.38686 | 3.24712 | 17556 ft | 336 kts | 59° |
| 2026-04-27 22:30 | 52.39852 | 3.28016 | 17289 ft | 334 kts | 59° |
| 2026-04-27 22:30 | 52.41009 | 3.31301 | 17030 ft | 333 kts | 59° |
| 2026-04-27 22:30 | 52.42162 | 3.34587 | 16763 ft | 332 kts | 59° |
| 2026-04-27 22:31 | 52.43304 | 3.37852 | 16509 ft | 330 kts | 59° |
| 2026-04-27 22:31 | 52.44412 | 3.41137 | 16241 ft | 330 kts | 64° |
| 2026-04-27 22:31 | 52.45167 | 3.44662 | 15994 ft | 327 kts | 76° |
| 2026-04-27 22:31 | 52.45687 | 3.48288 | 15746 ft | 326 kts | 76° |
| 2026-04-27 22:32 | 52.46208 | 3.51906 | 15490 ft | 326 kts | 76° |
| 2026-04-27 22:32 | 52.46725 | 3.55501 | 15243 ft | 323 kts | 76° |
| 2026-04-27 22:32 | 52.47240 | 3.59083 | 14997 ft | 321 kts | 76° |
| 2026-04-27 22:32 | 52.47749 | 3.62634 | 14750 ft | 319 kts | 76° |
| 2026-04-27 22:33 | 52.48251 | 3.66169 | 14513 ft | 316 kts | 76° |
| 2026-04-27 22:33 | 52.48746 | 3.69678 | 14271 ft | 315 kts | 76° |
| 2026-04-27 22:33 | 52.49242 | 3.73179 | 14022 ft | 314 kts | 76° |
| 2026-04-27 22:33 | 52.49736 | 3.76651 | 13751 ft | 311 kts | 76° |
| 2026-04-27 22:34 | 52.50218 | 3.80062 | 13482 ft | 310 kts | 76° |
| 2026-04-27 22:34 | 52.50698 | 3.83494 | 13215 ft | 308 kts | 76° |
| 2026-04-27 22:34 | 52.51175 | 3.86912 | 12950 ft | 306 kts | 76° |
| 2026-04-27 22:34 | 52.51653 | 3.90314 | 12687 ft | 305 kts | 76° |
| 2026-04-27 22:35 | 52.52075 | 3.93721 | 12433 ft | 304 kts | 83° |
| 2026-04-27 22:35 | 52.52082 | 3.97175 | 12175 ft | 302 kts | 95° |
| 2026-04-27 22:35 | 52.51619 | 4.00541 | 11918 ft | 302 kts | 110° |
| 2026-04-27 22:35 | 52.50841 | 4.03746 | 11663 ft | 303 kts | 112° |
| 2026-04-27 22:36 | 52.50058 | 4.06934 | 11406 ft | 301 kts | 112° |
| 2026-04-27 22:36 | 52.49282 | 4.10108 | 11151 ft | 298 kts | 112° |
| 2026-04-27 22:36 | 52.48514 | 4.13254 | 10905 ft | 297 kts | 112° |
| 2026-04-27 22:36 | 52.47749 | 4.16392 | 10661 ft | 295 kts | 112° |
| 2026-04-27 22:37 | 52.46989 | 4.19512 | 10406 ft | 294 kts | 112° |
| 2026-04-27 22:37 | 52.46233 | 4.22615 | 10192 ft | 292 kts | 112° |
| 2026-04-27 22:37 | 52.45475 | 4.25700 | 10026 ft | 292 kts | 112° |
| 2026-04-27 22:37 | 52.44716 | 4.28777 | 9603 ft | 291 kts | 112° |
| 2026-04-27 22:38 | 52.43959 | 4.31847 | 9164 ft | 291 kts | 112° |
| 2026-04-27 22:38 | 52.43066 | 4.34815 | 8750 ft | 290 kts | 126° |
| 2026-04-27 22:38 | 52.41618 | 4.37061 | 8350 ft | 288 kts | 148° |
| 2026-04-27 22:38 | 52.39764 | 4.38233 | 7935 ft | 286 kts | 170° |
| 2026-04-27 22:39 | 52.37772 | 4.38243 | 7459 ft | 287 kts | 186° |
| 2026-04-27 22:39 | 52.35783 | 4.37955 | 7090 ft | 286 kts | 185° |
| 2026-04-27 22:39 | 52.33794 | 4.37691 | 6654 ft | 287 kts | 185° |
| 2026-04-27 22:39 | 52.31817 | 4.37443 | 6287 ft | 284 kts | 184° |
| 2026-04-27 22:40 | 52.29840 | 4.37198 | 5833 ft | 285 kts | 184° |
| 2026-04-27 22:40 | 52.27886 | 4.36955 | 5627 ft | 277 kts | 184° |
| 2026-04-27 22:40 | 52.26004 | 4.36798 | 5491 ft | 266 kts | 175° |
| 2026-04-27 22:40 | 52.24284 | 4.37597 | 5365 ft | 253 kts | 149° |
| 2026-04-27 22:41 | 52.22972 | 4.39411 | 5088 ft | 245 kts | 124° |
| 2026-04-27 22:41 | 52.22177 | 4.41830 | 4793 ft | 241 kts | 112° |
| 2026-04-27 22:41 | 52.21459 | 4.44352 | 4181 ft | 251 kts | 111° |
| 2026-04-27 22:41 | 52.20933 | 4.47001 | 3853 ft | 237 kts | 94° |
| 2026-04-27 22:42 | 52.20844 | 4.49669 | 3270 ft | 237 kts | 89° |
| 2026-04-27 22:42 | 52.20908 | 4.52290 | 2948 ft | 224 kts | 74° |
| 2026-04-27 22:42 | 52.21506 | 4.54526 | 2671 ft | 210 kts | 56° |
| 2026-04-27 22:42 | 52.22281 | 4.56516 | 2409 ft | 207 kts | 57° |
| 2026-04-27 22:43 | 52.23041 | 4.58498 | 2126 ft | 202 kts | 57° |
| 2026-04-27 22:43 | 52.23779 | 4.60403 | 1875 ft | 194 kts | 57° |
| 2026-04-27 22:43 | 52.24475 | 4.62198 | 1619 ft | 181 kts | 58° |
| 2026-04-27 22:43 | 52.25113 | 4.63850 | 1390 ft | 165 kts | 57° |
| 2026-04-27 22:44 | 52.25700 | 4.65368 | 1177 ft | 151 kts | 57° |
| 2026-04-27 22:44 | 52.26229 | 4.66740 | 992 ft | 132 kts | 58° |
| 2026-04-27 22:44 | 52.26696 | 4.67953 | 823 ft | 122 kts | 58° |
| 2026-04-27 22:44 | 52.27142 | 4.69113 | 673 ft | 120 kts | 57° |
| 2026-04-27 22:45 | 52.27584 | 4.70253 | 527 ft | 119 kts | 57° |
| 2026-04-27 22:45 | 52.28021 | 4.71397 | 379 ft | 118 kts | 57° |
| 2026-04-27 22:45 | 52.28452 | 4.72548 | 181 ft | 119 kts | 58° |
| 2026-04-27 22:45 | 52.28892 | 4.73668 | 42 ft | 116 kts | 56° |
| 2026-04-27 22:46 | 52.29308 | 4.74750 | 2 ft | 100 kts | 57° |
| 2026-04-27 22:46 | 52.29537 | 4.75344 | -3 ft | 26 kts | 58° |
| 2026-04-27 22:46 | 52.29625 | 4.75576 | -1 ft | 23 kts | 58° |
| 2026-04-27 22:46 | 52.29741 | 4.75767 | -4 ft | 25 kts | 31° |
| 2026-04-27 22:47 | 52.29897 | 4.75899 | -3 ft | 24 kts | 27° |
| 2026-04-27 22:47 | 52.30002 | 4.76019 | -2 ft | 17 kts | 51° |
| 2026-04-27 22:47 | 52.30073 | 4.76197 | -2 ft | 20 kts | 58° |
| 2026-04-27 22:47 | 52.30154 | 4.76407 | -2 ft | 23 kts | 58° |
| 2026-04-27 22:48 | 52.30244 | 4.76641 | -2 ft | 25 kts | 58° |
| 2026-04-27 22:48 | 52.30344 | 4.76687 | -2 ft | 14 kts | 293° |
| 2026-04-27 22:48 | 52.30367 | 4.76582 | -2 ft | 11 kts | 313° |
| 2026-04-27 22:48 | 52.30439 | 4.76504 | -2 ft | 14 kts | 330° |
| 2026-04-27 22:49 | 52.30528 | 4.76412 | -2 ft | 13 kts | 334° |
| 2026-04-27 22:49 | 52.30567 | 4.76471 | -2 ft | 7 kts | 56° |
| 2026-04-27 22:49 | 52.30570 | 4.76478 | -2 ft | 0 kts | 58° |